Terminal Aerodrome Forecast
Issued by NWS Charleston, WV

Current Version | Previous Version | Text Only | Print | Product List | Glossary Off
Versions: 1 2 3 4 5 6 7 8 9 10 11 12 13 14 15 16 17 18 19 20 21 22

000
FTUS41 KRLX 081220 RRA
TAFBKW
TAF
KBKW 081220Z 0812/0912 31008KT P6SM BKN070
     FM081600 29011KT P6SM SCT060
     FM081900 29013G20KT P6SM FEW250
     FM082200 30013G22KT P6SM SCT050
     FM090000 30012G22KT P6SM BKN040
     FM090800 30011G18KT P6SM OVC035=

USA.gov is the U.S. government's official web portal to all federal, state and local government web resources and services.